Accueil
METAR-TAF:

METAR-TAF

Aéroports :

Yap, Micronésie

Aéroport international de Yap

latitude: 09-29N, longitude: 138-05E, altitude: 28 m

Observation

Le bulletin a été fait il y a 45 minutes, à 08:57 UTC
Vent 6 kt de direction variable
Température 28°C
Humidité 79%
Pression 1010 hPa
Visibilité: 19.3 km
Quelques nuages à une hauteur de 1700 ft
Nuages fragmentés à une hauteur de 30000 ft

METAR: PTYA 190857Z VRB06KT 12SM FEW017 BKN300 28/24 A2983 RMK SLP101 8/101 T02770240 53007

Heure: 19:42 (09:42 UTC)

Prévision

Le bulletin a été fait il y a 4 heures et 22 minutes, à 05:20 UTC
Prévision valable du 19 à 06 UTC au 20 à 06 UTC
Vent 9 kt de est
Visibilité: 10 km
Quelques nuages à une hauteur de 2000 ft
Nuages épars à une hauteur de 5000 ft

TAF: PTYA 190520Z 1906/2006 08009KT P6SM FEW020 SCT050

Observations et prévisions météorologiques de plus de 4000 aéroports (messages METAR et TAF).

Les stations disponibles sont représentées par des disques jaunes et rouges sur la carte.

Passer la souris dessus pour voir le nom de la station.

Cliquer dessus pour voir les observations et prévisions météorologiques.

Pour changer de carte: cliquez sur les boutons verts avec une croix noire pour zoomer, sur le bouton vert avec un tiret pour effectuer un zoom arrière, ou sur les flèches vertes pour les cartes adjacentes.


METAR-TAF: